createdAt,value
2023-05-06T00:02:56.532Z,101377.88
2023-05-06T00:07:59.358Z,101380.97
2023-05-06T00:13:03.620Z,101375.75
2023-05-06T00:18:06.518Z,101367.06
2023-05-06T00:23:09.047Z,101373.91
2023-05-06T00:28:13.160Z,101372.91
2023-05-06T00:33:15.697Z,101373.59
2023-05-06T00:38:19.526Z,101366.81
2023-05-06T00:43:23.409Z,101362.97
2023-05-06T00:48:26.267Z,101358.53
2023-05-06T00:53:29.321Z,101354.59
2023-05-06T00:58:34.457Z,101358.94
2023-05-06T01:03:38.006Z,101350.97
2023-05-06T01:08:58.475Z,101344.56
2023-05-06T01:14:12.608Z,101341.88
2023-05-06T01:19:29.179Z,101342.75
2023-05-06T01:24:43.049Z,101347.31
2023-05-06T01:29:48.107Z,101343.22
2023-05-06T01:34:56.831Z,101342.25
2023-05-06T01:40:04.118Z,101332.88
2023-05-06T01:45:10.869Z,101331.06
2023-05-06T01:50:14.007Z,101335.84
2023-05-06T01:55:17.962Z,101349.50
2023-05-06T02:00:20.509Z,101342.38
2023-05-06T02:05:23.075Z,101351.88
2023-05-06T02:10:31.831Z,101347.81
2023-05-06T02:15:38.452Z,101346.50
2023-05-06T02:20:42.780Z,101351.28
2023-05-06T02:25:52.441Z,101350.72
2023-05-06T02:30:58.656Z,101357.66
2023-05-06T02:36:01.207Z,101358.56
2023-05-06T02:41:05.136Z,101358.34
2023-05-06T02:46:08.286Z,101356.03
2023-05-06T02:51:10.906Z,101342.84
2023-05-06T02:56:14.895Z,101345.72
2023-05-06T03:01:17.473Z,101350.03
2023-05-06T03:06:20.049Z,101346.31
2023-05-06T03:11:24.102Z,101332.75
2023-05-06T03:16:27.457Z,101337.94
2023-05-06T03:21:33.845Z,101331.34
2023-05-06T03:26:37.850Z,101336.09
2023-05-06T03:31:41.820Z,101340.19
2023-05-06T03:36:44.722Z,101339.22
2023-05-06T03:41:49.120Z,101335.75
2023-05-06T03:46:53.554Z,101343.41
2023-05-06T03:51:56.405Z,101326.66
2023-05-06T03:57:02.421Z,101332.56
2023-05-06T04:02:06.414Z,101334.91
2023-05-06T04:07:12.319Z,101344.53
2023-05-06T04:12:16.318Z,101343.53
2023-05-06T04:17:39.002Z,101316.75
2023-05-06T04:23:02.648Z,101350.41
2023-05-06T04:28:27.009Z,101346.84
2023-05-06T04:33:50.203Z,101355.72
2023-05-06T04:39:18.030Z,101334.09
2023-05-06T04:44:43.528Z,101370.00
2023-05-06T04:50:07.400Z,101373.03
2023-05-06T04:55:30.057Z,101375.84
2023-05-06T05:00:54.394Z,101384.34
2023-05-06T05:05:57.145Z,101397.00
2023-05-06T05:11:02.295Z,101396.69
2023-05-06T05:16:08.298Z,101397.44
2023-05-06T05:21:13.917Z,101392.88
2023-05-06T05:26:16.873Z,101394.72
2023-05-06T05:31:23.582Z,101399.84
2023-05-06T05:36:27.593Z,101400.97
2023-05-06T05:41:32.376Z,101402.34
2023-05-06T05:46:36.876Z,101410.22
2023-05-06T05:51:40.939Z,101427.75
2023-05-06T05:56:44.933Z,101420.69
2023-05-06T06:01:48.968Z,101424.03
2023-05-06T06:06:51.654Z,101424.03
2023-05-06T06:11:55.067Z,101428.97
2023-05-06T06:16:59.556Z,101418.16
2023-05-06T06:22:02.222Z,101425.84
2023-05-06T06:27:08.273Z,101420.94
2023-05-06T06:32:12.843Z,101422.38
2023-05-06T06:37:15.545Z,101437.91
2023-05-06T06:42:18.489Z,101434.31
2023-05-06T06:47:35.524Z,101420.41
2023-05-06T06:52:38.236Z,101431.47
2023-05-06T06:57:41.296Z,101428.03
2023-05-06T07:02:47.974Z,101432.63
2023-05-06T07:07:50.633Z,101436.84
2023-05-06T07:12:54.030Z,101431.81
2023-05-06T07:17:58.102Z,101423.88
2023-05-06T07:23:01.011Z,101426.72
2023-05-06T07:28:03.767Z,101430.06
2023-05-06T07:33:08.292Z,101383.91
2023-05-06T07:38:10.905Z,101423.66
2023-05-06T07:43:13.484Z,101426.03
2023-05-06T07:48:19.955Z,101441.47
2023-05-06T07:53:22.919Z,101436.34
2023-05-06T07:58:25.781Z,101446.75
2023-05-06T08:03:30.985Z,101439.19
2023-05-06T08:08:33.960Z,101456.88
2023-05-06T08:13:36.554Z,101461.25
2023-05-06T08:18:40.440Z,101460.69
2023-05-06T08:23:42.996Z,101463.50
2023-05-06T08:28:45.580Z,101460.50
2023-05-06T08:33:49.604Z,101464.25
2023-05-06T08:38:52.171Z,101455.13
2023-05-06T08:43:55.751Z,101463.00
2023-05-06T08:49:00.035Z,101452.91
2023-05-06T08:54:03.547Z,101449.25
2023-05-06T08:59:09.030Z,101453.75
2023-05-06T09:04:14.075Z,101454.59
2023-05-06T09:09:17.181Z,101457.00
2023-05-06T09:14:21.618Z,101445.88
2023-05-06T09:19:25.628Z,101447.09
2023-05-06T09:24:28.257Z,101440.38
2023-05-06T09:29:30.832Z,101441.53
2023-05-06T09:34:35.564Z,101433.66
2023-05-06T09:39:38.111Z,101426.59
2023-05-06T09:44:40.748Z,101418.38
2023-05-06T09:49:44.668Z,101417.59
2023-05-06T09:54:48.353Z,101412.97
2023-05-06T09:59:51.999Z,101417.44
2023-05-06T10:04:57.700Z,101415.78
2023-05-06T10:10:01.488Z,101416.66
2023-05-06T10:15:05.175Z,101410.59
2023-05-06T10:20:13.589Z,101409.69
2023-05-06T10:25:24.176Z,101401.75
2023-05-06T10:30:28.322Z,101401.06
2023-05-06T10:35:43.341Z,101399.56
2023-05-06T10:40:47.467Z,101396.63
2023-05-06T10:46:06.081Z,101405.25
2023-05-06T10:51:29.474Z,101389.75
2023-05-06T10:56:33.834Z,101375.69
2023-05-06T11:01:38.581Z,101378.50
2023-05-06T11:06:46.322Z,101283.44
2023-05-06T11:11:51.256Z,101373.66
2023-05-06T11:16:55.046Z,101376.19
2023-05-06T11:22:01.024Z,101374.38
2023-05-06T11:27:03.706Z,101362.28
2023-05-06T11:32:19.383Z,101359.50
2023-05-06T11:37:28.116Z,101356.06
2023-05-06T11:42:31.042Z,101365.13
2023-05-06T11:47:33.678Z,101358.59
2023-05-06T11:52:37.935Z,101365.66
2023-05-06T11:57:46.110Z,101353.84
2023-05-06T12:02:48.704Z,101351.06
2023-05-06T12:07:52.894Z,101345.44
2023-05-06T12:12:56.520Z,101352.69
2023-05-06T12:18:02.148Z,101346.31
2023-05-06T12:23:11.297Z,101350.50
2023-05-06T12:28:17.450Z,101344.53
2023-05-06T12:33:20.058Z,101355.63
2023-05-06T12:38:23.916Z,101353.94
2023-05-06T12:43:31.254Z,101349.31
2023-05-06T12:48:33.938Z,101344.25
2023-05-06T12:53:37.869Z,101346.38
2023-05-06T12:58:40.506Z,101344.69
2023-05-06T13:03:43.119Z,101338.28
2023-05-06T13:08:47.076Z,101332.22
2023-05-06T13:13:49.711Z,101332.75
2023-05-06T13:18:52.621Z,101327.41
2023-05-06T13:23:56.951Z,101315.34
2023-05-06T13:28:59.763Z,101317.47
2023-05-06T13:34:02.390Z,101319.63
2023-05-06T13:39:06.452Z,101320.38
2023-05-06T13:44:10.266Z,101325.66
2023-05-06T13:49:13.862Z,101315.91
2023-05-06T13:54:18.161Z,101312.22
2023-05-06T13:59:20.817Z,101315.63
2023-05-06T14:04:23.912Z,101308.13
2023-05-06T14:09:27.969Z,101298.97
2023-05-06T14:14:30.562Z,101303.50
2023-05-06T14:19:33.651Z,101293.06
2023-05-06T14:24:37.689Z,101290.66
2023-05-06T14:29:42.966Z,101283.34
2023-05-06T14:34:45.566Z,101290.09
2023-05-06T14:39:49.666Z,101277.47
2023-05-06T14:44:52.213Z,101270.34
2023-05-06T14:49:54.854Z,101278.00
2023-05-06T14:54:59.051Z,101285.44
2023-05-06T15:00:03.157Z,101282.31
2023-05-06T15:05:07.203Z,101275.88
2023-05-06T15:10:11.834Z,101268.50
2023-05-06T15:15:14.518Z,101283.50
2023-05-06T15:20:17.333Z,101281.41
2023-05-06T15:25:34.358Z,101313.28
2023-05-06T15:30:38.442Z,101308.06
2023-05-06T15:35:41.044Z,101315.56
2023-05-06T15:40:50.974Z,101323.00
2023-05-06T15:45:53.663Z,101315.84
2023-05-06T15:50:56.254Z,101325.97
2023-05-06T15:56:13.277Z,101316.75
2023-05-06T16:01:31.556Z,101329.34
2023-05-06T16:06:44.075Z,101320.25
2023-05-06T16:11:48.104Z,101312.03
2023-05-06T16:16:50.716Z,101324.31
2023-05-06T16:21:54.345Z,101335.16
2023-05-06T16:26:58.347Z,101334.06
2023-05-06T16:32:01.217Z,101324.09
2023-05-06T16:37:03.834Z,101319.34
2023-05-06T16:42:08.270Z,101316.66
2023-05-06T16:47:13.599Z,101307.09
2023-05-06T16:52:17.809Z,101303.94
2023-05-06T16:57:21.772Z,101305.50
2023-05-06T17:02:24.389Z,101307.06
2023-05-06T17:07:26.981Z,101306.63
2023-05-06T17:12:30.895Z,101304.31
2023-05-06T17:17:33.507Z,101303.16
2023-05-06T17:22:36.194Z,101298.94
2023-05-06T17:27:40.098Z,101299.34
2023-05-06T17:32:42.969Z,101297.25
2023-05-06T17:37:46.233Z,101208.00
2023-05-06T17:42:50.125Z,101300.66
2023-05-06T17:47:52.773Z,101212.81
2023-05-06T17:52:55.391Z,101292.34
2023-05-06T17:57:59.547Z,101281.59
2023-05-06T18:03:02.184Z,101288.97
2023-05-06T18:08:06.576Z,101296.72
2023-05-06T18:13:10.584Z,101296.13
2023-05-06T18:18:13.227Z,101297.19
2023-05-06T18:23:15.820Z,101304.72
2023-05-06T18:28:19.866Z,101308.25
2023-05-06T18:33:22.678Z,101304.59
2023-05-06T18:38:26.414Z,101313.72
2023-05-06T18:43:31.159Z,101320.66
2023-05-06T18:48:33.764Z,101320.84
2023-05-06T18:53:36.438Z,101326.16
2023-05-06T18:58:41.977Z,101326.34
2023-05-06T19:03:44.829Z,101334.97
2023-05-06T19:08:47.579Z,101334.97
2023-05-06T19:13:52.795Z,101347.22
2023-05-06T19:18:55.501Z,101342.72
2023-05-06T19:23:59.711Z,101349.56
2023-05-06T19:29:03.605Z,101341.25
2023-05-06T19:34:06.188Z,101338.84
2023-05-06T19:39:09.143Z,101342.13
2023-05-06T19:44:13.041Z,101334.75
2023-05-06T19:49:15.580Z,101343.53
2023-05-06T19:54:19.778Z,101346.53
2023-05-06T19:59:23.742Z,101338.13
2023-05-06T20:04:26.301Z,101362.56
2023-05-06T20:09:28.854Z,101356.75
2023-05-06T20:14:33.289Z,101353.19
2023-05-06T20:19:35.839Z,101359.88
2023-05-06T20:24:38.792Z,101354.31
2023-05-06T20:29:42.746Z,101327.53
2023-05-06T20:34:47.108Z,101352.41
2023-05-06T20:39:49.712Z,101362.59
2023-05-06T20:44:53.892Z,101359.59
2023-05-06T20:49:56.642Z,101356.31
2023-05-06T20:54:59.281Z,101366.00
2023-05-06T21:00:03.865Z,101366.41
2023-05-06T21:05:07.267Z,101366.78
2023-05-06T21:10:11.701Z,101363.16
2023-05-06T21:15:15.953Z,101362.16
2023-05-06T21:20:19.330Z,101365.19
2023-05-06T21:25:22.115Z,101361.63
2023-05-06T21:30:26.258Z,101355.25
2023-05-06T21:35:30.482Z,101354.13
2023-05-06T21:40:33.224Z,101360.09
2023-05-06T21:45:37.540Z,101368.97
2023-05-06T21:50:40.187Z,101354.63
2023-05-06T21:55:42.761Z,101349.25
2023-05-06T22:00:46.842Z,101345.25
2023-05-06T22:05:50.331Z,101329.00
2023-05-06T22:10:53.608Z,101338.72
2023-05-06T22:15:57.700Z,101313.84
2023-05-06T22:21:00.410Z,101335.09
2023-05-06T22:26:03.076Z,101340.44
2023-05-06T22:31:07.265Z,101336.66
2023-05-06T22:36:09.996Z,101349.03
2023-05-06T22:41:12.574Z,101351.94
2023-05-06T22:46:17.865Z,101348.94
2023-05-06T22:51:20.996Z,101345.19
2023-05-06T22:56:23.808Z,101340.31
2023-05-06T23:01:31.825Z,101285.56
2023-05-06T23:06:34.706Z,101342.13
2023-05-06T23:11:37.255Z,101341.03
2023-05-06T23:16:41.873Z,101333.03
2023-05-06T23:21:44.715Z,101337.41
2023-05-06T23:26:47.328Z,101343.69
2023-05-06T23:31:51.237Z,101346.97
2023-05-06T23:36:54.198Z,101335.22
2023-05-06T23:42:00.337Z,101341.03
2023-05-06T23:47:04.304Z,101346.84
2023-05-06T23:52:06.864Z,101344.47
2023-05-06T23:57:09.425Z,101348.78
